Seymour, IN

2:10 PM EST on January 26, 2015 (GMT -0500)
Vallonia | Change Station
CLOSE
Current Station
Personal Weather Station
Location: Vallonia, IN
Elevation: 554 ft
Nearby Weather Stations

Elev 554 ft 38.85 °N, 86.09 °W | Updated 11 minutes ago

Mostly Cloudy
Mostly Cloudy
30.4 °F
Feels Like 23 °F
N
7.3
Wind Variable Wind from NNW

Today
High -- | Low -- °F
--% Chance of Precip.
Yesterday
High -- | Low -- °F
Precip. -- in
7:54 AM 5:57 PM
Waxing Crescent, 46% visible
Pressure 29.92 in
Visibility 10.0 miles
Clouds Mostly Cloudy 2300 ft
Windchill 23 °F
Dew Point 23 °F
Humidity 73%
Rainfall 0.00 in
Snow Depth Not available.
UV 2 out of 12
Pollen .10 out of 12
Air Quality Not available.
Flu Activity Not available.
METAR KBAK 261845Z 28007KT 10SM BKN023 M02/M07 A2992

More Conditions Fewer Conditions

Pressure 29.92 in
Visibility 10.0 miles
Clouds Mostly Cloudy 2300 ft
Windchill 23 °F
Dew Point 23 °F
Humidity 73%
Rainfall 0.00 in
Snow Depth Not available.
UV 2 out of 12
Pollen .10 out of 12
Air Quality Not available.
Flu Activity Not available.
METAR KBAK 261845Z 28007KT 10SM BKN023 M02/M07 A2992

More Conditions Fewer Conditions

10-Day Weather Forecast

Almanac

Astronomy

Jan. 26, 2015 Rise Set
Actual Time
Civil Twilight
Nautical Twilight
Astronomical Twilight
Moon
Length of Visible Light
Length of Day
Tomorrow will be .
, % of the Moon is Illuminated

Today's Extremes

State Highs State Lows

Community

WunderPhotos

Upload Photos

1,790,336 photos uploaded!

WunderBlogs® & News

Nearby

Air Quality

  Air Quality AQ Index Pollutant
Not available.

Snow Depth

Station Depth Elevation

Earthquake Activity

City Distance Mag. Time & Date
Minimum magnitude displayed is 2.5.

Coastal Water Temperatures

Place Temperature

Nearby Weather Stations